Annapolis Junction, Maryland
Current Conditions -  °F | °C
As of 5:18 AM on Monday 26 Jan 2015 (Local Time) from KFME Reporting Station
Overcast Overcast  
Wind Chill: 24°   Ceiling: 800
Heat Index: 32°   Visibility: 4mi
Dew Point: 32°   Wind: 9mph
Humidity: 100%   Direction: 60°ENE
Pressure: 29.84"   Gusts: NA
Location:  39.13°N, 76.8°W
Report Text: KFME 261018Z AUTO 06008KT 4SM OVC008 00/00 A2984 RMK AO1
Loading
Personal Weather Stations






























Interactive Weather Map New forecast layout! Learn more

10-Day Weather Forecast

Advertisements
Track Severe Weather on mobile